createdAt,value
2018-09-11T00:00:02.495Z,14.9
2018-09-11T00:15:02.938Z,14.9
2018-09-11T00:30:02.398Z,14.8
2018-09-11T00:45:02.692Z,14.8
2018-09-11T01:00:03.072Z,14.8
2018-09-11T01:15:02.421Z,14.7
2018-09-11T01:30:02.817Z,14.6
2018-09-11T01:45:03.227Z,14.6
2018-09-11T02:00:02.593Z,14.6
2018-09-11T02:15:02.932Z,14.5
2018-09-11T02:30:02.361Z,14.4
2018-09-11T02:45:02.706Z,14.4
2018-09-11T03:00:03.014Z,14.4
2018-09-11T03:15:02.374Z,14.3
2018-09-11T03:30:02.813Z,14.3
2018-09-11T03:45:03.232Z,14.2
2018-09-11T04:00:02.674Z,14.2
2018-09-11T04:15:03.052Z,14.2
2018-09-11T04:30:02.576Z,14.1
2018-09-11T04:45:02.900Z,14.1
2018-09-11T05:00:03.268Z,14.1
2018-09-11T05:15:02.605Z,14
2018-09-11T05:30:02.987Z,14
2018-09-11T05:45:02.326Z,14
2018-09-11T06:00:02.668Z,13.9
2018-09-11T06:15:02.987Z,14
2018-09-11T06:30:02.492Z,13.9
2018-09-11T06:45:02.792Z,13.9
2018-09-11T07:00:03.110Z,13.9
2018-09-11T07:15:02.435Z,13.9
2018-09-11T07:30:02.833Z,13.9
2018-09-11T07:45:03.160Z,14
2018-09-11T08:00:02.514Z,14
2018-09-11T08:15:02.806Z,14.1
2018-09-11T08:30:03.189Z,14.1
2018-09-11T08:45:02.564Z,14.2
2018-09-11T09:00:02.886Z,14.2
2018-09-11T09:15:03.214Z,14.3
2018-09-11T09:30:02.594Z,14.3
2018-09-11T09:45:02.904Z,14.4
2018-09-11T10:00:03.210Z,14.5
2018-09-11T10:15:02.577Z,14.6
2018-09-11T10:30:02.950Z,14.6
2018-09-11T10:45:02.329Z,14.7
2018-09-11T11:00:02.705Z,14.8
2018-09-11T11:15:03.008Z,14.9
2018-09-11T11:30:02.433Z,15
2018-09-11T11:45:02.719Z,15.1
2018-09-11T12:00:03.089Z,15.2
2018-09-11T12:15:02.385Z,15.2
2018-09-11T12:30:02.803Z,15.3
2018-09-11T12:45:03.109Z,15.4
2018-09-11T13:00:02.413Z,15.5
2018-09-11T13:15:02.743Z,15.6
2018-09-11T13:30:03.225Z,15.7
2018-09-11T13:45:02.590Z,15.8
2018-09-11T14:00:02.911Z,15.9
2018-09-11T14:15:03.212Z,15.9
2018-09-11T14:30:02.594Z,15.9
2018-09-11T14:45:02.936Z,16
2018-09-11T15:00:03.240Z,16.1
2018-09-11T15:15:02.612Z,16.1
2018-09-11T15:30:03.166Z,16.1
2018-09-11T15:45:02.528Z,16.1
2018-09-11T16:00:02.817Z,16.1
2018-09-11T16:15:03.242Z,16.2
2018-09-11T16:30:02.706Z,16.2
2018-09-11T16:45:03.076Z,16.2
2018-09-11T17:00:02.447Z,16.2
2018-09-11T17:15:02.731Z,16.2
2018-09-11T17:30:03.161Z,16.2
2018-09-11T17:45:02.502Z,16.2
2018-09-11T18:00:03.099Z,16.2
2018-09-11T18:15:02.385Z,16.2
2018-09-11T18:30:02.799Z,16.2
2018-09-11T18:45:03.204Z,16.2
2018-09-11T19:00:02.630Z,16.2
2018-09-11T19:15:02.959Z,16.2
2018-09-11T19:30:02.371Z,16.2
2018-09-11T19:45:02.735Z,16.1
2018-09-11T20:00:03.052Z,16.1
2018-09-11T20:15:02.376Z,16.1
2018-09-11T20:30:02.797Z,16.1
2018-09-11T20:45:03.183Z,16.1
2018-09-11T21:00:02.600Z,16.1
2018-09-11T21:15:03.065Z,16.1
2018-09-11T21:30:02.564Z,16
2018-09-11T21:45:02.980Z,16
2018-09-11T22:00:03.114Z,15.9
2018-09-11T22:15:02.547Z,15.9
2018-09-11T22:30:02.985Z,15.9
2018-09-11T22:45:02.300Z,15.8
2018-09-11T23:00:02.623Z,15.8
2018-09-11T23:15:02.930Z,15.8
2018-09-11T23:30:02.312Z,15.7
2018-09-11T23:45:02.607Z,15.6
